Billings, MT (59101)

4:24 PM MST on December 09, 2016 (GMT -0700)
Yellowstone RV Campground | | Change Station
Active Advisory: Winter Weather Advisory

Elev 3120 ft 45.76 °N, 108.48 °W | Updated 28 seconds ago

Mostly Cloudy
Mostly Cloudy
8.6 °F
Feels Like 9 °F
N
0.0
Wind Variable Wind from NE
Gusts 0.0 mph

Today
High -- | Low -- °F
--% Chance of Precip.
Yesterday
High -- | Low -- °F
Precip. -- in
Pressure 30.44 in
Visibility 10.0 miles
Clouds Mostly Cloudy 12000 ft
Windchill 9 °F
Dew Point -9 °F
Humidity 43%
Rainfall 0.00 in
Snow Depth Not available.
7:43 AM 4:29 PM
Waxing Gibbous, 78% visible
METAR KBIL 092253Z 05005KT 10SM BKN120 M16/M18 A3020 RMK AO2 SLP308 T11561183
Pressure 30.44 in
Visibility 10.0 miles
Clouds Mostly Cloudy 12000 ft
Windchill 9 °F
Dew Point -9 °F
Humidity 43%
Rainfall 0.00 in
Snow Depth Not available.
7:43 AM 4:29 PM
Waxing Gibbous, 78% visible
METAR KBIL 092253Z 05005KT 10SM BKN120 M16/M18 A3020 RMK AO2 SLP308 T11561183

10-Day Weather Forecast

Almanac

Astronomy

Dec. 09, 2016 Rise Set
Actual Time
Civil Twilight
Nautical Twilight
Astronomical Twilight
Moon
Length of Visible Light
Length of Day
Tomorrow will be .
, % of the Moon is Illuminated

Today's Extremes

State Highs State Lows

Community

WunderPhotos

Upload Photos

1,956,535 photos uploaded!

WunderBlog® & News

Nearby

Air Quality

  Air Quality AQ Index Pollutant
Not available.

Snow Depth

Station Depth Elevation

Earthquake Activity

City Distance Mag. Time & Date
Minimum magnitude displayed is 2.5.

Coastal Water Temperatures

Place Temperature

Stations

Nearby Weather Stations

Station Location Temp. Windchill Dew Point Humidity Wind Precip. Elev Updated Type
                   

Watches & Warnings

Winter Weather Advisory
Issued: 3:11 PM MST Dec. 9, 2016 – National Weather Service

... Winter Weather Advisory remains in effect until noon MST
Saturday...

* impacts... snow covered roads... especially on less traveled
roads. Any snowmelt will refreeze overnight.

* Timing... more snow beginning this evening... continuing through
Saturday morning.

* Snow accumulation... 2 to 3 inches through Saturday

Precautionary/preparedness actions...

A Winter Weather Advisory can be issued for a variety of winter
weather conditions such as light snow... blowing snow... sleet...
freezing rain... and extreme wind chills.